sensor_id;sensor_type;location;lat;lon;timestamp;P1;durP1;ratioP1;P2;durP2;ratioP2
37895;SDS011;23733;53.254;10.430;2023-03-01T00:00:24;36.00;;;6.63;;
37895;SDS011;23733;53.254;10.430;2023-03-01T00:02:50;11.97;;;6.37;;
37895;SDS011;23733;53.254;10.430;2023-03-01T00:05:16;10.37;;;6.27;;
37895;SDS011;23733;53.254;10.430;2023-03-01T00:07:42;9.97;;;5.73;;
37895;SDS011;23733;53.254;10.430;2023-03-01T00:10:08;15.73;;;6.63;;
37895;SDS011;23733;53.254;10.430;2023-03-01T00:12:35;13.37;;;6.53;;
37895;SDS011;23733;53.254;10.430;2023-03-01T00:15:03;13.23;;;7.03;;
37895;SDS011;23733;53.254;10.430;2023-03-01T00:17:30;13.43;;;7.40;;
37895;SDS011;23733;53.254;10.430;2023-03-01T00:19:56;14.13;;;7.83;;
37895;SDS011;23733;53.254;10.430;2023-03-01T00:22:22;12.13;;;7.00;;
37895;SDS011;23733;53.254;10.430;2023-03-01T00:24:48;13.30;;;7.50;;
37895;SDS011;23733;53.254;10.430;2023-03-01T00:27:14;12.57;;;7.03;;
37895;SDS011;23733;53.254;10.430;2023-03-01T00:29:40;12.57;;;6.83;;
37895;SDS011;23733;53.254;10.430;2023-03-01T00:32:06;14.20;;;7.43;;
37895;SDS011;23733;53.254;10.430;2023-03-01T00:34:32;13.13;;;7.57;;
37895;SDS011;23733;53.254;10.430;2023-03-01T00:36:58;11.20;;;6.83;;
37895;SDS011;23733;53.254;10.430;2023-03-01T00:39:31;12.73;;;6.40;;
37895;SDS011;23733;53.254;10.430;2023-03-01T00:41:57;12.37;;;6.20;;
37895;SDS011;23733;53.254;10.430;2023-03-01T00:44:23;11.70;;;6.20;;
37895;SDS011;23733;53.254;10.430;2023-03-01T00:46:52;12.40;;;6.57;;
37895;SDS011;23733;53.254;10.430;2023-03-01T00:49:18;14.20;;;7.00;;
37895;SDS011;23733;53.254;10.430;2023-03-01T00:51:44;12.67;;;7.07;;
37895;SDS011;23733;53.254;10.430;2023-03-01T00:54:10;12.33;;;6.80;;
37895;SDS011;23733;53.254;10.430;2023-03-01T00:56:36;12.77;;;6.80;;
37895;SDS011;23733;53.254;10.430;2023-03-01T00:59:05;13.57;;;7.07;;
37895;SDS011;23733;53.254;10.430;2023-03-01T01:01:31;13.17;;;7.10;;
37895;SDS011;23733;53.254;10.430;2023-03-01T01:04:02;9.80;;;6.10;;
37895;SDS011;23733;53.254;10.430;2023-03-01T01:06:34;11.47;;;6.03;;
37895;SDS011;23733;53.254;10.430;2023-03-01T01:09:11;13.13;;;6.10;;
37895;SDS011;23733;53.254;10.430;2023-03-01T01:11:43;10.40;;;5.53;;
37895;SDS011;23733;53.254;10.430;2023-03-01T01:14:13;9.53;;;5.57;;
37895;SDS011;23733;53.254;10.430;2023-03-01T01:16:39;9.80;;;5.33;;
37895;SDS011;23733;53.254;10.430;2023-03-01T01:19:05;9.37;;;5.33;;
37895;SDS011;23733;53.254;10.430;2023-03-01T01:21:32;10.27;;;5.67;;
37895;SDS011;23733;53.254;10.430;2023-03-01T01:24:02;10.67;;;5.53;;
37895;SDS011;23733;53.254;10.430;2023-03-01T01:26:30;8.97;;;5.10;;
37895;SDS011;23733;53.254;10.430;2023-03-01T01:28:57;7.83;;;4.67;;
37895;SDS011;23733;53.254;10.430;2023-03-01T01:31:25;7.93;;;4.90;;
37895;SDS011;23733;53.254;10.430;2023-03-01T01:33:51;8.57;;;4.87;;
37895;SDS011;23733;53.254;10.430;2023-03-01T01:36:19;8.70;;;4.90;;
37895;SDS011;23733;53.254;10.430;2023-03-01T01:38:45;9.00;;;5.13;;
37895;SDS011;23733;53.254;10.430;2023-03-01T01:41:11;12.20;;;5.27;;
37895;SDS011;23733;53.254;10.430;2023-03-01T01:43:40;9.57;;;5.37;;
37895;SDS011;23733;53.254;10.430;2023-03-01T01:46:15;9.00;;;5.40;;
37895;SDS011;23733;53.254;10.430;2023-03-01T01:48:58;7.83;;;4.67;;
37895;SDS011;23733;53.254;10.430;2023-03-01T01:51:28;7.53;;;4.40;;
37895;SDS011;23733;53.254;10.430;2023-03-01T01:54:06;8.57;;;4.83;;
37895;SDS011;23733;53.254;10.430;2023-03-01T01:56:42;8.27;;;4.97;;
37895;SDS011;23733;53.254;10.430;2023-03-01T01:59:13;9.07;;;5.13;;
37895;SDS011;23733;53.254;10.430;2023-03-01T02:01:39;8.53;;;5.20;;
37895;SDS011;23733;53.254;10.430;2023-03-01T02:04:05;10.13;;;5.10;;
37895;SDS011;23733;53.254;10.430;2023-03-01T02:06:33;10.90;;;5.77;;
37895;SDS011;23733;53.254;10.430;2023-03-01T02:09:07;10.07;;;5.40;;
37895;SDS011;23733;53.254;10.430;2023-03-01T02:11:39;10.00;;;4.97;;
37895;SDS011;23733;53.254;10.430;2023-03-01T02:14:06;10.13;;;4.90;;
37895;SDS011;23733;53.254;10.430;2023-03-01T02:16:32;9.13;;;5.07;;
37895;SDS011;23733;53.254;10.430;2023-03-01T02:18:59;8.37;;;4.77;;
37895;SDS011;23733;53.254;10.430;2023-03-01T02:21:30;7.90;;;4.60;;
37895;SDS011;23733;53.254;10.430;2023-03-01T02:24:06;9.20;;;4.67;;
37895;SDS011;23733;53.254;10.430;2023-03-01T02:26:47;10.33;;;5.47;;
37895;SDS011;23733;53.254;10.430;2023-03-01T02:29:15;10.37;;;4.97;;
37895;SDS011;23733;53.254;10.430;2023-03-01T02:31:41;8.83;;;4.87;;
37895;SDS011;23733;53.254;10.430;2023-03-01T02:36:40;9.73;;;4.70;;
37895;SDS011;23733;53.254;10.430;2023-03-01T02:39:14;9.67;;;5.20;;
37895;SDS011;23733;53.254;10.430;2023-03-01T02:41:47;9.33;;;4.30;;
37895;SDS011;23733;53.254;10.430;2023-03-01T02:44:17;10.37;;;4.63;;
37895;SDS011;23733;53.254;10.430;2023-03-01T02:46:48;7.57;;;4.30;;
37895;SDS011;23733;53.254;10.430;2023-03-01T02:49:20;8.73;;;4.60;;
37895;SDS011;23733;53.254;10.430;2023-03-01T02:57:05;8.00;;;4.17;;
37895;SDS011;23733;53.254;10.430;2023-03-01T02:59:31;8.23;;;3.70;;
37895;SDS011;23733;53.254;10.430;2023-03-01T03:02:07;5.43;;;3.33;;
37895;SDS011;23733;53.254;10.430;2023-03-01T03:04:48;6.53;;;3.40;;
37895;SDS011;23733;53.254;10.430;2023-03-01T03:07:14;6.33;;;3.23;;
37895;SDS011;23733;53.254;10.430;2023-03-01T03:09:40;5.43;;;3.10;;
37895;SDS011;23733;53.254;10.430;2023-03-01T03:12:06;5.27;;;3.00;;
37895;SDS011;23733;53.254;10.430;2023-03-01T03:14:32;5.10;;;3.23;;
37895;SDS011;23733;53.254;10.430;2023-03-01T03:17:00;7.73;;;3.30;;
37895;SDS011;23733;53.254;10.430;2023-03-01T03:19:26;8.20;;;3.60;;
37895;SDS011;23733;53.254;10.430;2023-03-01T03:21:52;6.90;;;3.53;;
37895;SDS011;23733;53.254;10.430;2023-03-01T03:24:18;5.73;;;3.40;;
37895;SDS011;23733;53.254;10.430;2023-03-01T03:26:44;6.83;;;3.40;;
37895;SDS011;23733;53.254;10.430;2023-03-01T03:29:10;6.00;;;3.37;;
37895;SDS011;23733;53.254;10.430;2023-03-01T03:31:36;6.20;;;3.70;;
37895;SDS011;23733;53.254;10.430;2023-03-01T03:34:05;9.70;;;3.90;;
37895;SDS011;23733;53.254;10.430;2023-03-01T03:36:33;6.20;;;4.13;;
37895;SDS011;23733;53.254;10.430;2023-03-01T03:39:02;6.73;;;3.80;;
37895;SDS011;23733;53.254;10.430;2023-03-01T03:41:28;6.73;;;3.70;;
37895;SDS011;23733;53.254;10.430;2023-03-01T03:43:54;6.90;;;4.00;;
37895;SDS011;23733;53.254;10.430;2023-03-01T03:46:23;8.73;;;4.20;;
37895;SDS011;23733;53.254;10.430;2023-03-01T03:48:49;10.40;;;4.57;;
37895;SDS011;23733;53.254;10.430;2023-03-01T03:51:16;6.97;;;3.93;;
37895;SDS011;23733;53.254;10.430;2023-03-01T03:53:43;8.17;;;3.93;;
37895;SDS011;23733;53.254;10.430;2023-03-01T03:56:09;7.27;;;3.90;;
37895;SDS011;23733;53.254;10.430;2023-03-01T03:58:36;7.97;;;4.30;;
37895;SDS011;23733;53.254;10.430;2023-03-01T04:01:05;7.47;;;4.13;;
37895;SDS011;23733;53.254;10.430;2023-03-01T04:03:32;8.27;;;4.43;;
37895;SDS011;23733;53.254;10.430;2023-03-01T04:06:03;7.83;;;4.33;;
37895;SDS011;23733;53.254;10.430;2023-03-01T04:08:32;7.63;;;4.37;;
37895;SDS011;23733;53.254;10.430;2023-03-01T04:10:59;9.00;;;4.03;;
37895;SDS011;23733;53.254;10.430;2023-03-01T04:13:47;8.80;;;3.63;;
37895;SDS011;23733;53.254;10.430;2023-03-01T04:16:13;5.60;;;3.30;;
37895;SDS011;23733;53.254;10.430;2023-03-01T04:18:42;7.07;;;4.10;;
37895;SDS011;23733;53.254;10.430;2023-03-01T04:21:08;5.77;;;3.90;;
37895;SDS011;23733;53.254;10.430;2023-03-01T04:23:34;7.17;;;3.50;;
37895;SDS011;23733;53.254;10.430;2023-03-01T04:26:00;9.13;;;4.30;;
37895;SDS011;23733;53.254;10.430;2023-03-01T04:28:27;9.93;;;5.27;;
37895;SDS011;23733;53.254;10.430;2023-03-01T04:31:02;7.23;;;4.13;;
37895;SDS011;23733;53.254;10.430;2023-03-01T04:33:48;7.47;;;4.60;;
37895;SDS011;23733;53.254;10.430;2023-03-01T04:36:20;10.30;;;5.00;;
37895;SDS011;23733;53.254;10.430;2023-03-01T04:38:48;10.23;;;4.83;;
37895;SDS011;23733;53.254;10.430;2023-03-01T04:41:15;9.13;;;4.63;;
37895;SDS011;23733;53.254;10.430;2023-03-01T04:43:43;8.93;;;4.10;;
37895;SDS011;23733;53.254;10.430;2023-03-01T04:46:11;6.30;;;3.43;;
37895;SDS011;23733;53.254;10.430;2023-03-01T04:48:40;7.10;;;3.70;;
37895;SDS011;23733;53.254;10.430;2023-03-01T04:51:07;7.53;;;3.57;;
37895;SDS011;23733;53.254;10.430;2023-03-01T04:53:34;8.13;;;4.00;;
37895;SDS011;23733;53.254;10.430;2023-03-01T04:56:03;5.57;;;3.17;;
37895;SDS011;23733;53.254;10.430;2023-03-01T04:58:30;6.90;;;3.53;;
37895;SDS011;23733;53.254;10.430;2023-03-01T05:00:56;6.97;;;3.70;;
37895;SDS011;23733;53.254;10.430;2023-03-01T05:03:25;8.00;;;3.30;;
37895;SDS011;23733;53.254;10.430;2023-03-01T05:05:51;5.93;;;3.53;;
37895;SDS011;23733;53.254;10.430;2023-03-01T05:08:18;5.33;;;3.60;;
37895;SDS011;23733;53.254;10.430;2023-03-01T05:10:48;7.87;;;3.30;;
37895;SDS011;23733;53.254;10.430;2023-03-01T05:13:15;6.40;;;3.60;;
37895;SDS011;23733;53.254;10.430;2023-03-01T05:15:56;7.40;;;4.17;;
37895;SDS011;23733;53.254;10.430;2023-03-01T05:18:24;7.63;;;3.80;;
37895;SDS011;23733;53.254;10.430;2023-03-01T05:20:54;8.03;;;3.97;;
37895;SDS011;23733;53.254;10.430;2023-03-01T05:23:24;7.27;;;4.10;;
37895;SDS011;23733;53.254;10.430;2023-03-01T05:25:50;6.53;;;3.53;;
37895;SDS011;23733;53.254;10.430;2023-03-01T05:28:18;8.10;;;3.67;;
37895;SDS011;23733;53.254;10.430;2023-03-01T05:30:45;5.90;;;3.43;;
37895;SDS011;23733;53.254;10.430;2023-03-01T05:33:12;7.03;;;3.50;;
37895;SDS011;23733;53.254;10.430;2023-03-01T05:35:41;8.63;;;4.07;;
37895;SDS011;23733;53.254;10.430;2023-03-01T05:38:09;6.43;;;3.43;;
37895;SDS011;23733;53.254;10.430;2023-03-01T05:40:39;6.27;;;3.33;;
37895;SDS011;23733;53.254;10.430;2023-03-01T05:43:09;8.10;;;3.50;;
37895;SDS011;23733;53.254;10.430;2023-03-01T05:45:36;8.03;;;4.00;;
37895;SDS011;23733;53.254;10.430;2023-03-01T05:48:04;6.17;;;3.80;;
37895;SDS011;23733;53.254;10.430;2023-03-01T05:50:35;6.23;;;3.80;;
37895;SDS011;23733;53.254;10.430;2023-03-01T05:53:05;6.40;;;3.87;;
37895;SDS011;23733;53.254;10.430;2023-03-01T05:55:46;7.57;;;3.90;;
37895;SDS011;23733;53.254;10.430;2023-03-01T05:58:14;6.20;;;3.50;;
37895;SDS011;23733;53.254;10.430;2023-03-01T06:00:43;6.83;;;3.60;;
37895;SDS011;23733;53.254;10.430;2023-03-01T06:03:14;5.80;;;3.43;;
37895;SDS011;23733;53.254;10.430;2023-03-01T06:05:43;6.53;;;3.33;;
37895;SDS011;23733;53.254;10.430;2023-03-01T06:08:09;5.40;;;2.97;;
37895;SDS011;23733;53.254;10.430;2023-03-01T06:10:36;9.33;;;3.80;;
37895;SDS011;23733;53.254;10.430;2023-03-01T06:13:02;7.07;;;3.67;;
37895;SDS011;23733;53.254;10.430;2023-03-01T06:15:28;5.30;;;3.33;;
37895;SDS011;23733;53.254;10.430;2023-03-01T06:17:54;7.63;;;3.70;;
37895;SDS011;23733;53.254;10.430;2023-03-01T06:20:25;7.17;;;4.23;;
37895;SDS011;23733;53.254;10.430;2023-03-01T06:22:52;5.27;;;3.40;;
37895;SDS011;23733;53.254;10.430;2023-03-01T06:25:22;6.90;;;3.67;;
37895;SDS011;23733;53.254;10.430;2023-03-01T06:27:52;6.40;;;3.97;;
37895;SDS011;23733;53.254;10.430;2023-03-01T06:30:18;5.47;;;3.40;;
37895;SDS011;23733;53.254;10.430;2023-03-01T06:32:49;6.00;;;3.60;;
37895;SDS011;23733;53.254;10.430;2023-03-01T06:35:18;6.83;;;3.83;;
37895;SDS011;23733;53.254;10.430;2023-03-01T06:37:45;7.43;;;3.73;;
37895;SDS011;23733;53.254;10.430;2023-03-01T06:40:12;6.20;;;3.60;;
37895;SDS011;23733;53.254;10.430;2023-03-01T06:42:40;7.87;;;4.00;;
37895;SDS011;23733;53.254;10.430;2023-03-01T06:45:08;7.90;;;3.63;;
37895;SDS011;23733;53.254;10.430;2023-03-01T06:47:34;7.87;;;3.77;;
37895;SDS011;23733;53.254;10.430;2023-03-01T06:50:00;6.53;;;3.77;;
37895;SDS011;23733;53.254;10.430;2023-03-01T06:52:27;6.30;;;3.47;;
37895;SDS011;23733;53.254;10.430;2023-03-01T06:54:54;11.10;;;4.47;;
37895;SDS011;23733;53.254;10.430;2023-03-01T06:57:20;6.83;;;3.90;;
37895;SDS011;23733;53.254;10.430;2023-03-01T06:59:47;7.43;;;4.00;;
37895;SDS011;23733;53.254;10.430;2023-03-01T07:02:13;6.80;;;3.80;;
37895;SDS011;23733;53.254;10.430;2023-03-01T07:04:40;6.83;;;4.03;;
37895;SDS011;23733;53.254;10.430;2023-03-01T07:07:06;8.53;;;4.23;;
37895;SDS011;23733;53.254;10.430;2023-03-01T07:09:33;7.27;;;3.97;;
37895;SDS011;23733;53.254;10.430;2023-03-01T07:11:59;7.80;;;3.93;;
37895;SDS011;23733;53.254;10.430;2023-03-01T07:14:25;11.30;;;5.17;;
37895;SDS011;23733;53.254;10.430;2023-03-01T07:16:54;6.63;;;4.03;;
37895;SDS011;23733;53.254;10.430;2023-03-01T07:19:21;6.37;;;3.60;;
37895;SDS011;23733;53.254;10.430;2023-03-01T07:21:47;11.20;;;5.27;;
37895;SDS011;23733;53.254;10.430;2023-03-01T07:24:14;6.67;;;3.80;;
37895;SDS011;23733;53.254;10.430;2023-03-01T07:26:40;7.37;;;3.77;;
37895;SDS011;23733;53.254;10.430;2023-03-01T07:29:07;21.07;;;7.40;;
37895;SDS011;23733;53.254;10.430;2023-03-01T07:31:35;25.87;;;8.40;;
37895;SDS011;23733;53.254;10.430;2023-03-01T07:34:02;19.87;;;7.90;;
37895;SDS011;23733;53.254;10.430;2023-03-01T07:36:31;21.40;;;7.23;;
37895;SDS011;23733;53.254;10.430;2023-03-01T07:38:57;16.53;;;6.70;;
37895;SDS011;23733;53.254;10.430;2023-03-01T07:41:23;14.13;;;5.00;;
37895;SDS011;23733;53.254;10.430;2023-03-01T07:43:49;9.80;;;4.23;;
37895;SDS011;23733;53.254;10.430;2023-03-01T07:46:15;16.90;;;7.00;;
37895;SDS011;23733;53.254;10.430;2023-03-01T07:48:49;11.47;;;4.93;;
37895;SDS011;23733;53.254;10.430;2023-03-01T07:51:15;10.53;;;4.67;;
37895;SDS011;23733;53.254;10.430;2023-03-01T07:53:41;9.57;;;4.37;;
37895;SDS011;23733;53.254;10.430;2023-03-01T07:56:13;6.93;;;3.50;;
37895;SDS011;23733;53.254;10.430;2023-03-01T07:58:43;6.20;;;3.33;;
37895;SDS011;23733;53.254;10.430;2023-03-01T08:01:13;8.20;;;3.80;;
37895;SDS011;23733;53.254;10.430;2023-03-01T08:03:41;5.80;;;3.57;;
37895;SDS011;23733;53.254;10.430;2023-03-01T08:06:09;6.27;;;3.43;;
37895;SDS011;23733;53.254;10.430;2023-03-01T08:08:40;6.20;;;3.53;;
37895;SDS011;23733;53.254;10.430;2023-03-01T08:11:06;5.70;;;3.47;;
37895;SDS011;23733;53.254;10.430;2023-03-01T08:13:35;6.93;;;3.80;;
37895;SDS011;23733;53.254;10.430;2023-03-01T08:16:14;7.87;;;4.20;;
37895;SDS011;23733;53.254;10.430;2023-03-01T08:18:53;6.70;;;3.70;;
37895;SDS011;23733;53.254;10.430;2023-03-01T08:21:27;9.47;;;4.30;;
37895;SDS011;23733;53.254;10.430;2023-03-01T08:27:34;8.87;;;4.20;;
37895;SDS011;23733;53.254;10.430;2023-03-01T08:30:26;6.67;;;3.60;;
37895;SDS011;23733;53.254;10.430;2023-03-01T08:33:01;7.23;;;4.00;;
37895;SDS011;23733;53.254;10.430;2023-03-01T08:35:27;8.37;;;4.07;;
37895;SDS011;23733;53.254;10.430;2023-03-01T08:37:56;9.53;;;3.87;;
37895;SDS011;23733;53.254;10.430;2023-03-01T08:40:22;6.40;;;3.50;;
37895;SDS011;23733;53.254;10.430;2023-03-01T08:42:48;7.20;;;3.17;;
37895;SDS011;23733;53.254;10.430;2023-03-01T08:45:14;7.97;;;3.47;;
37895;SDS011;23733;53.254;10.430;2023-03-01T08:47:44;5.93;;;3.07;;
37895;SDS011;23733;53.254;10.430;2023-03-01T08:50:10;6.87;;;3.20;;
37895;SDS011;23733;53.254;10.430;2023-03-01T08:52:37;5.17;;;3.23;;
37895;SDS011;23733;53.254;10.430;2023-03-01T08:55:03;6.60;;;2.90;;
37895;SDS011;23733;53.254;10.430;2023-03-01T08:57:29;7.50;;;3.57;;
37895;SDS011;23733;53.254;10.430;2023-03-01T08:59:56;7.57;;;3.43;;
37895;SDS011;23733;53.254;10.430;2023-03-01T09:02:22;7.07;;;3.50;;
37895;SDS011;23733;53.254;10.430;2023-03-01T09:04:49;6.03;;;3.33;;
37895;SDS011;23733;53.254;10.430;2023-03-01T09:07:18;5.53;;;3.37;;
37895;SDS011;23733;53.254;10.430;2023-03-01T09:09:44;5.67;;;3.23;;
37895;SDS011;23733;53.254;10.430;2023-03-01T09:12:10;5.40;;;3.37;;
37895;SDS011;23733;53.254;10.430;2023-03-01T09:14:37;7.13;;;3.60;;
37895;SDS011;23733;53.254;10.430;2023-03-01T09:17:04;6.60;;;3.50;;
37895;SDS011;23733;53.254;10.430;2023-03-01T09:19:30;6.93;;;3.50;;
37895;SDS011;23733;53.254;10.430;2023-03-01T09:21:56;7.30;;;3.80;;
37895;SDS011;23733;53.254;10.430;2023-03-01T09:27:23;6.70;;;3.90;;
37895;SDS011;23733;53.254;10.430;2023-03-01T09:29:50;8.03;;;3.93;;
37895;SDS011;23733;53.254;10.430;2023-03-01T09:32:16;12.37;;;4.50;;
37895;SDS011;23733;53.254;10.430;2023-03-01T09:34:43;7.10;;;3.90;;
37895;SDS011;23733;53.254;10.430;2023-03-01T09:37:28;12.00;;;4.10;;
37895;SDS011;23733;53.254;10.430;2023-03-01T09:39:54;9.67;;;4.67;;
37895;SDS011;23733;53.254;10.430;2023-03-01T09:42:20;13.53;;;5.70;;
37895;SDS011;23733;53.254;10.430;2023-03-01T09:47:33;11.17;;;6.50;;
37895;SDS011;23733;53.254;10.430;2023-03-01T09:50:19;14.80;;;8.47;;
37895;SDS011;23733;53.254;10.430;2023-03-01T09:52:47;19.00;;;9.40;;
37895;SDS011;23733;53.254;10.430;2023-03-01T09:55:20;16.83;;;8.47;;
37895;SDS011;23733;53.254;10.430;2023-03-01T09:57:55;16.33;;;7.77;;
37895;SDS011;23733;53.254;10.430;2023-03-01T10:02:56;13.87;;;7.40;;
37895;SDS011;23733;53.254;10.430;2023-03-01T10:05:29;13.67;;;7.47;;
37895;SDS011;23733;53.254;10.430;2023-03-01T10:10:36;17.23;;;6.90;;
37895;SDS011;23733;53.254;10.430;2023-03-01T10:13:19;14.87;;;7.53;;
37895;SDS011;23733;53.254;10.430;2023-03-01T10:15:48;16.03;;;6.90;;
37895;SDS011;23733;53.254;10.430;2023-03-01T10:18:21;12.50;;;7.17;;
37895;SDS011;23733;53.254;10.430;2023-03-01T10:20:52;11.37;;;7.03;;
37895;SDS011;23733;53.254;10.430;2023-03-01T10:23:19;13.83;;;6.87;;
37895;SDS011;23733;53.254;10.430;2023-03-01T10:28:25;14.47;;;7.30;;
37895;SDS011;23733;53.254;10.430;2023-03-01T10:30:53;14.23;;;7.10;;
37895;SDS011;23733;53.254;10.430;2023-03-01T10:33:21;15.57;;;7.00;;
37895;SDS011;23733;53.254;10.430;2023-03-01T10:35:47;11.60;;;7.00;;
37895;SDS011;23733;53.254;10.430;2023-03-01T10:38:14;12.03;;;7.17;;
37895;SDS011;23733;53.254;10.430;2023-03-01T10:40:54;12.90;;;6.80;;
37895;SDS011;23733;53.254;10.430;2023-03-01T10:43:44;12.57;;;7.37;;
37895;SDS011;23733;53.254;10.430;2023-03-01T10:46:28;17.13;;;6.73;;
37895;SDS011;23733;53.254;10.430;2023-03-01T10:51:40;12.17;;;6.37;;
37895;SDS011;23733;53.254;10.430;2023-03-01T10:54:15;13.77;;;6.97;;
37895;SDS011;23733;53.254;10.430;2023-03-01T10:59:28;13.70;;;6.80;;
37895;SDS011;23733;53.254;10.430;2023-03-01T11:02:37;13.23;;;7.07;;
37895;SDS011;23733;53.254;10.430;2023-03-01T11:04:57;9.63;;;6.50;;
37895;SDS011;23733;53.254;10.430;2023-03-01T11:07:23;15.80;;;7.00;;
37895;SDS011;23733;53.254;10.430;2023-03-01T11:09:49;15.90;;;7.53;;
37895;SDS011;23733;53.254;10.430;2023-03-01T11:12:16;11.97;;;7.07;;
37895;SDS011;23733;53.254;10.430;2023-03-01T11:14:50;11.83;;;6.53;;
37895;SDS011;23733;53.254;10.430;2023-03-01T11:17:21;14.33;;;6.70;;
37895;SDS011;23733;53.254;10.430;2023-03-01T11:19:59;13.60;;;7.00;;
37895;SDS011;23733;53.254;10.430;2023-03-01T11:22:26;12.83;;;6.57;;
37895;SDS011;23733;53.254;10.430;2023-03-01T11:24:53;13.40;;;7.37;;
37895;SDS011;23733;53.254;10.430;2023-03-01T11:27:34;12.90;;;6.70;;
37895;SDS011;23733;53.254;10.430;2023-03-01T11:30:07;11.40;;;6.10;;
37895;SDS011;23733;53.254;10.430;2023-03-01T11:32:40;12.73;;;6.90;;
37895;SDS011;23733;53.254;10.430;2023-03-01T11:35:10;10.17;;;6.30;;
37895;SDS011;23733;53.254;10.430;2023-03-01T11:40:15;9.60;;;6.37;;
37895;SDS011;23733;53.254;10.430;2023-03-01T11:43:01;11.80;;;7.20;;
37895;SDS011;23733;53.254;10.430;2023-03-01T11:45:32;11.20;;;7.03;;
37895;SDS011;23733;53.254;10.430;2023-03-01T11:48:04;12.93;;;7.00;;
37895;SDS011;23733;53.254;10.430;2023-03-01T11:50:35;12.20;;;7.60;;
37895;SDS011;23733;53.254;10.430;2023-03-01T12:00:59;11.83;;;7.60;;
37895;SDS011;23733;53.254;10.430;2023-03-01T12:03:28;10.57;;;7.30;;
37895;SDS011;23733;53.254;10.430;2023-03-01T12:08:41;12.00;;;7.50;;
37895;SDS011;23733;53.254;10.430;2023-03-01T12:13:52;14.00;;;7.73;;
37895;SDS011;23733;53.254;10.430;2023-03-01T12:16:27;12.50;;;7.30;;
37895;SDS011;23733;53.254;10.430;2023-03-01T12:19:21;13.23;;;7.70;;
37895;SDS011;23733;53.254;10.430;2023-03-01T12:21:57;9.87;;;6.43;;
37895;SDS011;23733;53.254;10.430;2023-03-01T12:24:33;11.80;;;7.70;;
37895;SDS011;23733;53.254;10.430;2023-03-01T12:27:11;13.77;;;7.50;;
37895;SDS011;23733;53.254;10.430;2023-03-01T12:29:43;13.83;;;7.30;;
37895;SDS011;23733;53.254;10.430;2023-03-01T12:37:54;14.97;;;7.70;;
37895;SDS011;23733;53.254;10.430;2023-03-01T12:43:14;10.53;;;7.47;;
37895;SDS011;23733;53.254;10.430;2023-03-01T12:51:08;13.87;;;6.87;;
37895;SDS011;23733;53.254;10.430;2023-03-01T12:53:36;11.93;;;7.67;;
37895;SDS011;23733;53.254;10.430;2023-03-01T12:56:06;11.30;;;7.20;;
37895;SDS011;23733;53.254;10.430;2023-03-01T12:58:36;13.87;;;7.00;;
37895;SDS011;23733;53.254;10.430;2023-03-01T13:01:17;12.40;;;7.80;;
37895;SDS011;23733;53.254;10.430;2023-03-01T13:06:57;15.70;;;8.70;;
37895;SDS011;23733;53.254;10.430;2023-03-01T13:14:59;11.67;;;8.07;;
37895;SDS011;23733;53.254;10.430;2023-03-01T13:17:32;12.27;;;8.07;;
37895;SDS011;23733;53.254;10.430;2023-03-01T13:20:11;11.30;;;7.90;;
37895;SDS011;23733;53.254;10.430;2023-03-01T13:22:38;11.67;;;7.30;;
37895;SDS011;23733;53.254;10.430;2023-03-01T13:25:17;15.40;;;8.03;;
37895;SDS011;23733;53.254;10.430;2023-03-01T13:34:44;12.73;;;7.80;;
37895;SDS011;23733;53.254;10.430;2023-03-01T13:37:33;15.63;;;8.37;;
37895;SDS011;23733;53.254;10.430;2023-03-01T13:43:38;13.10;;;8.60;;
37895;SDS011;23733;53.254;10.430;2023-03-01T13:46:25;13.87;;;8.40;;
37895;SDS011;23733;53.254;10.430;2023-03-01T13:48:53;11.70;;;7.67;;
37895;SDS011;23733;53.254;10.430;2023-03-01T13:51:22;16.03;;;8.17;;
37895;SDS011;23733;53.254;10.430;2023-03-01T13:53:49;12.83;;;8.43;;
37895;SDS011;23733;53.254;10.430;2023-03-01T13:56:25;14.10;;;7.77;;
37895;SDS011;23733;53.254;10.430;2023-03-01T14:01:37;13.13;;;7.67;;
37895;SDS011;23733;53.254;10.430;2023-03-01T14:07:31;10.77;;;7.87;;
37895;SDS011;23733;53.254;10.430;2023-03-01T14:18:36;14.07;;;7.73;;
37895;SDS011;23733;53.254;10.430;2023-03-01T14:21:20;11.47;;;7.60;;
37895;SDS011;23733;53.254;10.430;2023-03-01T14:24:00;13.67;;;7.33;;
37895;SDS011;23733;53.254;10.430;2023-03-01T14:26:27;11.20;;;7.13;;
37895;SDS011;23733;53.254;10.430;2023-03-01T14:28:53;11.57;;;7.80;;
37895;SDS011;23733;53.254;10.430;2023-03-01T14:31:37;11.50;;;7.40;;
37895;SDS011;23733;53.254;10.430;2023-03-01T14:34:03;10.43;;;7.20;;
37895;SDS011;23733;53.254;10.430;2023-03-01T14:36:33;13.27;;;7.37;;
37895;SDS011;23733;53.254;10.430;2023-03-01T14:39:00;11.53;;;7.57;;
37895;SDS011;23733;53.254;10.430;2023-03-01T14:41:31;10.33;;;7.13;;
37895;SDS011;23733;53.254;10.430;2023-03-01T14:43:59;12.97;;;7.47;;
37895;SDS011;23733;53.254;10.430;2023-03-01T14:46:26;12.83;;;8.10;;
37895;SDS011;23733;53.254;10.430;2023-03-01T14:48:56;11.70;;;7.50;;
37895;SDS011;23733;53.254;10.430;2023-03-01T14:51:24;11.80;;;7.33;;
37895;SDS011;23733;53.254;10.430;2023-03-01T14:53:50;11.50;;;7.00;;
37895;SDS011;23733;53.254;10.430;2023-03-01T14:56:17;10.07;;;7.53;;
37895;SDS011;23733;53.254;10.430;2023-03-01T14:58:44;17.37;;;7.37;;
37895;SDS011;23733;53.254;10.430;2023-03-01T15:01:13;11.33;;;7.47;;
37895;SDS011;23733;53.254;10.430;2023-03-01T15:03:49;11.50;;;8.07;;
37895;SDS011;23733;53.254;10.430;2023-03-01T15:06:26;11.73;;;7.67;;
37895;SDS011;23733;53.254;10.430;2023-03-01T15:08:53;13.40;;;7.80;;
37895;SDS011;23733;53.254;10.430;2023-03-01T15:11:23;11.73;;;7.73;;
37895;SDS011;23733;53.254;10.430;2023-03-01T15:13:50;13.53;;;8.10;;
37895;SDS011;23733;53.254;10.430;2023-03-01T15:16:24;11.63;;;7.60;;
37895;SDS011;23733;53.254;10.430;2023-03-01T15:18:53;10.70;;;7.13;;
37895;SDS011;23733;53.254;10.430;2023-03-01T15:21:24;10.73;;;6.97;;
37895;SDS011;23733;53.254;10.430;2023-03-01T15:23:53;10.63;;;7.57;;
37895;SDS011;23733;53.254;10.430;2023-03-01T15:26:30;10.43;;;7.00;;
37895;SDS011;23733;53.254;10.430;2023-03-01T15:28:58;12.57;;;6.73;;
37895;SDS011;23733;53.254;10.430;2023-03-01T15:31:25;14.77;;;7.13;;
37895;SDS011;23733;53.254;10.430;2023-03-01T15:33:52;10.53;;;6.67;;
37895;SDS011;23733;53.254;10.430;2023-03-01T15:36:32;14.03;;;7.37;;
37895;SDS011;23733;53.254;10.430;2023-03-01T15:39:00;12.53;;;7.50;;
37895;SDS011;23733;53.254;10.430;2023-03-01T15:43:56;9.77;;;6.57;;
37895;SDS011;23733;53.254;10.430;2023-03-01T15:46:25;13.27;;;6.90;;
37895;SDS011;23733;53.254;10.430;2023-03-01T15:48:53;12.57;;;7.17;;
37895;SDS011;23733;53.254;10.430;2023-03-01T15:51:31;9.93;;;6.67;;
37895;SDS011;23733;53.254;10.430;2023-03-01T15:53:59;10.30;;;6.80;;
37895;SDS011;23733;53.254;10.430;2023-03-01T15:56:26;12.40;;;6.87;;
37895;SDS011;23733;53.254;10.430;2023-03-01T15:58:52;11.77;;;7.23;;
37895;SDS011;23733;53.254;10.430;2023-03-01T16:01:18;13.87;;;6.87;;
37895;SDS011;23733;53.254;10.430;2023-03-01T16:03:45;11.20;;;6.97;;
37895;SDS011;23733;53.254;10.430;2023-03-01T16:06:11;9.93;;;6.03;;
37895;SDS011;23733;53.254;10.430;2023-03-01T16:08:38;11.20;;;7.17;;
37895;SDS011;23733;53.254;10.430;2023-03-01T16:11:08;12.57;;;7.40;;
37895;SDS011;23733;53.254;10.430;2023-03-01T16:13:36;9.37;;;6.37;;
37895;SDS011;23733;53.254;10.430;2023-03-01T16:16:03;10.47;;;6.80;;
37895;SDS011;23733;53.254;10.430;2023-03-01T16:18:29;10.63;;;6.90;;